createdAt,value
2023-05-17T00:00:35.000Z,5.807966764418396
2023-05-17T00:01:37.000Z,5.837145650048894
2023-05-17T00:02:39.000Z,5.788514173998063
2023-05-17T00:03:42.000Z,5.807966764418396
2023-05-17T00:04:44.000Z,5.807966764418396
2023-05-17T00:05:47.000Z,5.798240469208229
2023-05-17T00:06:49.000Z,5.769061583577731
2023-05-17T00:07:51.000Z,5.807966764418396
2023-05-17T00:08:54.000Z,5.807966764418396
2023-05-17T00:09:56.000Z,5.788514173998063
2023-05-17T00:10:58.000Z,5.807966764418396
2023-05-17T00:12:01.000Z,5.798240469208229
2023-05-17T00:13:03.000Z,5.817693059628562
2023-05-17T00:14:05.000Z,5.798240469208229
2023-05-17T00:15:07.000Z,5.749608993157398
2023-05-17T00:16:10.000Z,5.778787878787897
2023-05-17T00:17:12.000Z,5.798240469208229
2023-05-17T00:18:14.000Z,5.798240469208229
2023-05-17T00:19:17.000Z,5.798240469208229
2023-05-17T00:20:19.000Z,5.769061583577731
2023-05-17T00:21:21.000Z,5.7107038123167335
2023-05-17T00:22:24.000Z,5.798240469208229
2023-05-17T00:23:26.000Z,5.788514173998063
2023-05-17T00:24:28.000Z,5.807966764418396
2023-05-17T00:25:31.000Z,5.807966764418396
2023-05-17T00:26:33.000Z,5.798240469208229
2023-05-17T00:27:35.000Z,5.778787878787897
2023-05-17T00:28:38.000Z,5.837145650048894
2023-05-17T00:29:40.000Z,5.866324535679393
2023-05-17T00:30:42.000Z,5.856598240469227
2023-05-17T00:31:45.000Z,5.856598240469227
2023-05-17T00:32:47.000Z,5.807966764418396
2023-05-17T00:33:50.000Z,5.8468719452590605
2023-05-17T00:34:52.000Z,5.866324535679393
2023-05-17T00:35:54.000Z,5.866324535679393
2023-05-17T00:36:56.000Z,5.866324535679393
2023-05-17T00:37:59.000Z,5.837145650048894
2023-05-17T00:39:01.000Z,5.885777126099725
2023-05-17T00:40:04.000Z,5.866324535679393
2023-05-17T00:41:06.000Z,5.885777126099725
2023-05-17T00:42:08.000Z,5.885777126099725
2023-05-17T00:43:10.000Z,5.856598240469227
2023-05-17T00:44:13.000Z,5.856598240469227
2023-05-17T00:45:15.000Z,5.876050830889559
2023-05-17T00:46:18.000Z,5.876050830889559
2023-05-17T00:47:20.000Z,5.8468719452590605
2023-05-17T00:48:22.000Z,5.866324535679393
2023-05-17T00:49:24.000Z,5.8468719452590605
2023-05-17T00:50:27.000Z,5.866324535679393
2023-05-17T00:51:29.000Z,5.856598240469227
2023-05-17T00:52:32.000Z,5.837145650048894
2023-05-17T00:53:34.000Z,5.817693059628562
2023-05-17T00:54:36.000Z,5.837145650048894
2023-05-17T00:55:38.000Z,5.8468719452590605
2023-05-17T00:56:41.000Z,5.876050830889559
2023-05-17T00:57:43.000Z,5.876050830889559
2023-05-17T00:58:46.000Z,5.885777126099725
2023-05-17T00:59:48.000Z,5.866324535679393
2023-05-17T01:00:50.000Z,5.895503421309892
2023-05-17T01:01:52.000Z,5.895503421309892
2023-05-17T01:02:55.000Z,5.895503421309892
2023-05-17T01:03:57.000Z,5.885777126099725
2023-05-17T01:04:59.000Z,5.876050830889559
2023-05-17T01:06:02.000Z,5.866324535679393
2023-05-17T01:07:04.000Z,5.885777126099725
2023-05-17T01:08:06.000Z,5.866324535679393
2023-05-17T01:09:09.000Z,5.827419354838728
2023-05-17T01:10:11.000Z,5.827419354838728
2023-05-17T01:11:13.000Z,5.788514173998063
2023-05-17T01:12:16.000Z,5.827419354838728
2023-05-17T01:13:18.000Z,5.827419354838728
2023-05-17T01:14:20.000Z,5.827419354838728
2023-05-17T01:15:23.000Z,5.807966764418396
2023-05-17T01:16:25.000Z,5.807966764418396
2023-05-17T01:17:27.000Z,5.807966764418396
2023-05-17T01:18:29.000Z,5.788514173998063
2023-05-17T01:19:32.000Z,5.817693059628562
2023-05-17T01:20:34.000Z,5.8468719452590605
2023-05-17T01:21:36.000Z,5.817693059628562
2023-05-17T01:22:39.000Z,5.807966764418396
2023-05-17T01:23:41.000Z,5.788514173998063
2023-05-17T01:24:43.000Z,5.817693059628562
2023-05-17T01:25:45.000Z,5.827419354838728
2023-05-17T01:26:48.000Z,5.827419354838728
2023-05-17T01:27:50.000Z,5.837145650048894
2023-05-17T01:28:52.000Z,5.837145650048894
2023-05-17T01:29:55.000Z,5.8468719452590605
2023-05-17T01:30:57.000Z,5.8468719452590605
2023-05-17T01:32:00.000Z,5.827419354838728
2023-05-17T01:33:02.000Z,5.837145650048894
2023-05-17T01:34:04.000Z,5.827419354838728
2023-05-17T01:35:06.000Z,5.8468719452590605
2023-05-17T01:36:09.000Z,5.807966764418396
2023-05-17T01:37:11.000Z,5.817693059628562
2023-05-17T01:38:13.000Z,5.788514173998063
2023-05-17T01:39:15.000Z,5.807966764418396
2023-05-17T01:40:18.000Z,5.837145650048894
2023-05-17T01:41:20.000Z,5.827419354838728
2023-05-17T01:42:22.000Z,5.817693059628562
2023-05-17T01:43:25.000Z,5.788514173998063
2023-05-17T01:44:27.000Z,5.798240469208229
2023-05-17T01:45:29.000Z,5.817693059628562
2023-05-17T01:46:31.000Z,5.807966764418396
2023-05-17T01:47:34.000Z,5.788514173998063
2023-05-17T01:48:36.000Z,5.769061583577731
2023-05-17T01:49:38.000Z,5.798240469208229
2023-05-17T01:50:41.000Z,5.798240469208229
2023-05-17T01:51:43.000Z,5.8468719452590605
2023-05-17T01:52:45.000Z,5.837145650048894
2023-05-17T01:53:48.000Z,5.788514173998063
2023-05-17T01:54:50.000Z,5.837145650048894
2023-05-17T01:55:52.000Z,5.837145650048894
2023-05-17T01:56:54.000Z,5.8468719452590605
2023-05-17T01:57:57.000Z,5.856598240469227
2023-05-17T01:58:59.000Z,5.817693059628562
2023-05-17T02:00:01.000Z,5.856598240469227
2023-05-17T02:01:04.000Z,5.856598240469227
2023-05-17T02:02:06.000Z,5.856598240469227
2023-05-17T02:03:08.000Z,5.817693059628562
2023-05-17T02:04:11.000Z,5.837145650048894
2023-05-17T02:05:13.000Z,5.807966764418396
2023-05-17T02:06:15.000Z,5.807966764418396
2023-05-17T02:07:18.000Z,5.798240469208229
2023-05-17T02:08:20.000Z,5.769061583577731
2023-05-17T02:09:22.000Z,5.788514173998063
2023-05-17T02:10:25.000Z,5.798240469208229
2023-05-17T02:11:27.000Z,5.759335288367565
2023-05-17T02:12:29.000Z,5.769061583577731
2023-05-17T02:13:32.000Z,5.769061583577731
2023-05-17T02:14:34.000Z,5.778787878787897
2023-05-17T02:15:36.000Z,5.778787878787897
2023-05-17T02:16:38.000Z,5.788514173998063
2023-05-17T02:17:41.000Z,5.749608993157398
2023-05-17T02:18:43.000Z,5.798240469208229
2023-05-17T02:19:45.000Z,5.798240469208229
2023-05-17T02:20:48.000Z,5.798240469208229
2023-05-17T02:21:50.000Z,5.807966764418396
2023-05-17T02:22:52.000Z,5.749608993157398
2023-05-17T02:23:55.000Z,5.807966764418396
2023-05-17T02:24:57.000Z,5.8468719452590605
2023-05-17T02:25:59.000Z,5.807966764418396
2023-05-17T02:27:02.000Z,5.769061583577731
2023-05-17T02:28:04.000Z,5.817693059628562
2023-05-17T02:29:06.000Z,5.827419354838728
2023-05-17T02:30:09.000Z,5.837145650048894
2023-05-17T02:31:11.000Z,5.8468719452590605
2023-05-17T02:32:13.000Z,5.807966764418396
2023-05-17T02:33:16.000Z,5.807966764418396
2023-05-17T02:34:18.000Z,5.798240469208229
2023-05-17T02:35:20.000Z,5.807966764418396
2023-05-17T02:36:23.000Z,5.788514173998063
2023-05-17T02:37:25.000Z,5.769061583577731
2023-05-17T02:38:27.000Z,5.798240469208229
2023-05-17T02:39:29.000Z,5.807966764418396
2023-05-17T02:40:32.000Z,5.788514173998063
2023-05-17T02:41:34.000Z,5.817693059628562
2023-05-17T02:42:36.000Z,5.788514173998063
2023-05-17T02:43:39.000Z,5.798240469208229
2023-05-17T02:44:41.000Z,5.798240469208229
2023-05-17T02:45:43.000Z,5.798240469208229
2023-05-17T02:46:46.000Z,5.8468719452590605
2023-05-17T02:47:48.000Z,5.827419354838728
2023-05-17T02:48:50.000Z,5.798240469208229
2023-05-17T02:49:53.000Z,5.827419354838728
2023-05-17T02:50:55.000Z,5.827419354838728
2023-05-17T02:51:57.000Z,5.817693059628562
2023-05-17T02:53:00.000Z,5.837145650048894
2023-05-17T02:54:02.000Z,5.837145650048894
2023-05-17T02:55:04.000Z,5.817693059628562
2023-05-17T02:56:07.000Z,5.8468719452590605
2023-05-17T02:57:09.000Z,5.8468719452590605
2023-05-17T02:58:11.000Z,5.817693059628562
2023-05-17T02:59:14.000Z,5.837145650048894
2023-05-17T03:00:16.000Z,5.817693059628562
2023-05-17T03:01:18.000Z,5.807966764418396
2023-05-17T03:02:21.000Z,5.798240469208229
2023-05-17T03:03:23.000Z,5.817693059628562
2023-05-17T03:04:25.000Z,5.788514173998063
2023-05-17T03:05:28.000Z,5.778787878787897
2023-05-17T03:06:30.000Z,5.788514173998063
2023-05-17T03:07:32.000Z,5.769061583577731
2023-05-17T03:08:35.000Z,5.798240469208229
2023-05-17T03:09:37.000Z,5.788514173998063
2023-05-17T03:10:39.000Z,5.798240469208229
2023-05-17T03:11:42.000Z,5.807966764418396
2023-05-17T03:12:44.000Z,5.807966764418396
2023-05-17T03:13:46.000Z,5.8468719452590605
2023-05-17T03:14:48.000Z,5.8468719452590605
2023-05-17T03:15:51.000Z,5.856598240469227
2023-05-17T03:16:53.000Z,5.866324535679393
2023-05-17T03:17:56.000Z,5.8468719452590605
2023-05-17T03:18:58.000Z,5.827419354838728
2023-05-17T03:20:00.000Z,5.856598240469227
2023-05-17T03:21:03.000Z,5.856598240469227
2023-05-17T03:22:05.000Z,5.876050830889559
2023-05-17T03:23:08.000Z,5.885777126099725
2023-05-17T03:24:10.000Z,5.866324535679393
2023-05-17T03:25:12.000Z,5.837145650048894
2023-05-17T03:26:15.000Z,5.866324535679393
2023-05-17T03:27:17.000Z,5.807966764418396
2023-05-17T03:28:19.000Z,5.837145650048894
2023-05-17T03:29:22.000Z,5.8468719452590605
2023-05-17T03:30:24.000Z,5.817693059628562
2023-05-17T03:31:26.000Z,5.856598240469227
2023-05-17T03:32:29.000Z,5.876050830889559
2023-05-17T03:33:31.000Z,5.866324535679393
2023-05-17T03:34:33.000Z,5.876050830889559
2023-05-17T03:35:36.000Z,5.856598240469227
2023-05-17T03:36:38.000Z,5.876050830889559
2023-05-17T03:37:40.000Z,5.885777126099725
2023-05-17T03:38:42.000Z,5.856598240469227
2023-05-17T03:39:45.000Z,5.905229716520058
2023-05-17T03:40:47.000Z,5.9830400782013875
2023-05-17T03:41:49.000Z,5.92468230694039
2023-05-17T03:42:52.000Z,5.953861192570889
2023-05-17T03:43:54.000Z,5.973313782991221
2023-05-17T03:44:56.000Z,5.9830400782013875
2023-05-17T03:45:59.000Z,5.992766373411554
2023-05-17T03:47:01.000Z,5.963587487781055
2023-05-17T03:48:03.000Z,5.953861192570889
2023-05-17T03:49:06.000Z,6.00249266862172
2023-05-17T03:50:08.000Z,5.9830400782013875
2023-05-17T03:51:10.000Z,5.9830400782013875
2023-05-17T03:52:13.000Z,5.9830400782013875
2023-05-17T03:53:15.000Z,5.963587487781055
2023-05-17T03:54:17.000Z,5.963587487781055
2023-05-17T03:55:20.000Z,5.973313782991221
2023-05-17T03:56:22.000Z,5.934408602150556
2023-05-17T03:57:24.000Z,5.944134897360723
2023-05-17T03:58:27.000Z,5.895503421309892
2023-05-17T03:59:29.000Z,5.92468230694039
2023-05-17T04:00:31.000Z,5.895503421309892
2023-05-17T04:01:33.000Z,5.885777126099725
2023-05-17T04:02:36.000Z,5.934408602150556
2023-05-17T04:03:38.000Z,5.914956011730224
2023-05-17T04:04:41.000Z,5.885777126099725
2023-05-17T04:05:43.000Z,5.905229716520058
2023-05-17T04:06:45.000Z,5.934408602150556
2023-05-17T04:07:53.000Z,5.963587487781055
2023-05-17T04:08:55.000Z,5.963587487781055
2023-05-17T04:09:57.000Z,5.973313782991221
2023-05-17T04:11:00.000Z,5.973313782991221
2023-05-17T04:12:02.000Z,5.973313782991221
2023-05-17T04:13:04.000Z,5.934408602150556
2023-05-17T04:14:07.000Z,5.973313782991221
2023-05-17T04:15:09.000Z,6.00249266862172
2023-05-17T04:16:11.000Z,6.012218963831886
2023-05-17T04:17:14.000Z,6.021945259042052
2023-05-17T04:18:16.000Z,6.041397849462385
2023-05-17T04:19:19.000Z,5.9830400782013875
2023-05-17T04:20:21.000Z,5.914956011730224
2023-05-17T04:21:23.000Z,5.973313782991221
2023-05-17T04:22:26.000Z,5.973313782991221
2023-05-17T04:23:28.000Z,5.973313782991221
2023-05-17T04:24:30.000Z,5.973313782991221
2023-05-17T04:25:33.000Z,5.973313782991221
2023-05-17T04:26:35.000Z,5.973313782991221
2023-05-17T04:27:37.000Z,5.963587487781055
2023-05-17T04:28:40.000Z,5.944134897360723
2023-05-17T04:29:42.000Z,5.973313782991221
2023-05-17T04:30:44.000Z,5.973313782991221
2023-05-17T04:31:47.000Z,5.885777126099725
2023-05-17T04:32:49.000Z,5.92468230694039
2023-05-17T04:33:51.000Z,5.914956011730224
2023-05-17T04:34:54.000Z,5.914956011730224
2023-05-17T04:35:56.000Z,5.92468230694039
2023-05-17T04:36:58.000Z,5.92468230694039
2023-05-17T04:38:01.000Z,5.92468230694039
2023-05-17T04:39:03.000Z,5.905229716520058
2023-05-17T04:40:05.000Z,5.934408602150556
2023-05-17T04:41:07.000Z,5.953861192570889
2023-05-17T04:42:10.000Z,5.944134897360723
2023-05-17T04:43:12.000Z,5.944134897360723
2023-05-17T04:44:14.000Z,5.905229716520058
2023-05-17T04:45:17.000Z,5.944134897360723
2023-05-17T04:46:19.000Z,5.953861192570889
2023-05-17T04:47:21.000Z,5.914956011730224
2023-05-17T04:48:24.000Z,5.914956011730224
2023-05-17T04:49:26.000Z,5.885777126099725
2023-05-17T04:50:28.000Z,5.895503421309892
2023-05-17T04:51:31.000Z,5.92468230694039
2023-05-17T04:52:33.000Z,5.934408602150556
2023-05-17T04:53:35.000Z,5.92468230694039
2023-05-17T04:54:38.000Z,5.92468230694039
2023-05-17T04:55:40.000Z,5.92468230694039
2023-05-17T04:56:42.000Z,5.885777126099725
2023-05-17T04:57:44.000Z,5.914956011730224
2023-05-17T04:58:47.000Z,5.92468230694039
2023-05-17T04:59:49.000Z,5.934408602150556
2023-05-17T05:00:51.000Z,5.9830400782013875
2023-05-17T05:01:54.000Z,5.9830400782013875
2023-05-17T05:02:56.000Z,5.992766373411554
2023-05-17T05:03:58.000Z,5.973313782991221
2023-05-17T05:05:01.000Z,6.021945259042052
2023-05-17T05:06:03.000Z,6.021945259042052
2023-05-17T05:07:06.000Z,5.973313782991221
2023-05-17T05:08:08.000Z,6.041397849462385
2023-05-17T05:09:10.000Z,6.012218963831886
2023-05-17T05:10:12.000Z,6.041397849462385
2023-05-17T05:11:15.000Z,6.031671554252219
2023-05-17T05:12:17.000Z,6.021945259042052
2023-05-17T05:13:19.000Z,6.021945259042052
2023-05-17T05:14:22.000Z,5.973313782991221
2023-05-17T05:15:24.000Z,5.973313782991221
2023-05-17T05:16:26.000Z,5.934408602150556
2023-05-17T05:17:29.000Z,5.973313782991221
2023-05-17T05:18:31.000Z,5.963587487781055
2023-05-17T05:19:33.000Z,5.973313782991221
2023-05-17T05:20:36.000Z,5.9830400782013875
2023-05-17T05:21:38.000Z,5.963587487781055
2023-05-17T05:22:40.000Z,5.92468230694039
2023-05-17T05:23:43.000Z,5.944134897360723
2023-05-17T05:24:45.000Z,5.905229716520058
2023-05-17T05:25:48.000Z,5.944134897360723
2023-05-17T05:26:50.000Z,5.953861192570889
2023-05-17T05:27:52.000Z,5.934408602150556
2023-05-17T05:28:54.000Z,5.963587487781055
2023-05-17T05:29:57.000Z,5.944134897360723
2023-05-17T05:30:59.000Z,5.963587487781055
2023-05-17T05:32:02.000Z,5.9830400782013875
2023-05-17T05:33:04.000Z,6.00249266862172
2023-05-17T05:34:06.000Z,5.992766373411554
2023-05-17T05:35:08.000Z,6.012218963831886
2023-05-17T05:36:11.000Z,6.012218963831886
2023-05-17T05:37:13.000Z,5.973313782991221
2023-05-17T05:38:15.000Z,5.953861192570889
2023-05-17T05:39:18.000Z,5.9830400782013875
2023-05-17T05:40:20.000Z,5.9830400782013875
2023-05-17T05:41:22.000Z,5.9830400782013875
2023-05-17T05:42:25.000Z,5.914956011730224
2023-05-17T05:43:27.000Z,5.953861192570889
2023-05-17T05:44:29.000Z,5.914956011730224
2023-05-17T05:45:32.000Z,5.944134897360723
2023-05-17T05:46:34.000Z,5.953861192570889
2023-05-17T05:47:36.000Z,5.934408602150556
2023-05-17T05:48:39.000Z,5.914956011730224
2023-05-17T05:49:41.000Z,5.905229716520058
2023-05-17T05:50:44.000Z,5.905229716520058
2023-05-17T05:51:46.000Z,5.895503421309892
2023-05-17T05:52:48.000Z,5.905229716520058
2023-05-17T05:53:50.000Z,5.895503421309892
2023-05-17T05:54:53.000Z,5.914956011730224
2023-05-17T05:55:55.000Z,5.953861192570889
2023-05-17T05:56:58.000Z,5.914956011730224
2023-05-17T05:58:00.000Z,5.905229716520058
2023-05-17T05:59:02.000Z,5.914956011730224
2023-05-17T06:00:04.000Z,5.944134897360723
2023-05-17T06:01:07.000Z,5.953861192570889
2023-05-17T06:02:09.000Z,5.934408602150556
2023-05-17T06:03:11.000Z,5.885777126099725
2023-05-17T06:04:14.000Z,5.92468230694039
2023-05-17T06:05:16.000Z,5.856598240469227
2023-05-17T06:06:18.000Z,5.953861192570889
2023-05-17T06:07:21.000Z,5.944134897360723
2023-05-17T06:08:23.000Z,5.973313782991221
2023-05-17T06:09:25.000Z,5.92468230694039
2023-05-17T06:10:27.000Z,5.92468230694039
2023-05-17T06:11:30.000Z,5.92468230694039
2023-05-17T06:12:32.000Z,5.895503421309892
2023-05-17T06:13:34.000Z,5.895503421309892
2023-05-17T06:14:37.000Z,5.914956011730224
2023-05-17T06:15:39.000Z,5.92468230694039
2023-05-17T06:16:42.000Z,5.905229716520058
2023-05-17T06:17:44.000Z,5.885777126099725
2023-05-17T06:18:46.000Z,5.934408602150556
2023-05-17T06:19:49.000Z,5.92468230694039
2023-05-17T06:20:51.000Z,5.92468230694039
2023-05-17T06:21:53.000Z,5.92468230694039
2023-05-17T06:22:55.000Z,5.866324535679393
2023-05-17T06:23:58.000Z,5.944134897360723
2023-05-17T06:25:00.000Z,5.934408602150556
2023-05-17T06:26:02.000Z,5.944134897360723
2023-05-17T06:27:05.000Z,5.944134897360723
2023-05-17T06:28:07.000Z,5.944134897360723
2023-05-17T06:29:09.000Z,5.944134897360723
2023-05-17T06:30:12.000Z,5.905229716520058
2023-05-17T06:31:14.000Z,5.934408602150556
2023-05-17T06:32:16.000Z,5.934408602150556
2023-05-17T06:33:19.000Z,5.944134897360723
2023-05-17T06:34:21.000Z,5.953861192570889
2023-05-17T06:35:23.000Z,5.963587487781055
2023-05-17T06:36:26.000Z,5.934408602150556
2023-05-17T06:37:28.000Z,5.885777126099725
2023-05-17T06:38:30.000Z,5.895503421309892
2023-05-17T06:39:33.000Z,5.885777126099725
2023-05-17T06:40:35.000Z,5.8468719452590605
2023-05-17T06:41:37.000Z,5.866324535679393
2023-05-17T06:42:40.000Z,5.876050830889559
2023-05-17T06:43:42.000Z,5.837145650048894
2023-05-17T06:44:44.000Z,5.866324535679393
2023-05-17T06:45:46.000Z,5.866324535679393
2023-05-17T06:46:49.000Z,5.866324535679393
2023-05-17T06:47:51.000Z,5.866324535679393
2023-05-17T06:48:54.000Z,5.856598240469227
2023-05-17T06:49:56.000Z,5.866324535679393
2023-05-17T06:50:58.000Z,5.895503421309892
2023-05-17T06:52:01.000Z,5.885777126099725
2023-05-17T06:53:03.000Z,5.866324535679393
2023-05-17T06:54:06.000Z,5.885777126099725
2023-05-17T06:55:08.000Z,5.944134897360723
2023-05-17T06:56:10.000Z,5.944134897360723
2023-05-17T06:57:12.000Z,5.914956011730224
2023-05-17T06:58:15.000Z,5.92468230694039
2023-05-17T06:59:17.000Z,5.944134897360723
2023-05-17T07:00:19.000Z,5.944134897360723
2023-05-17T07:01:22.000Z,5.905229716520058
2023-05-17T07:02:24.000Z,5.92468230694039
2023-05-17T07:03:26.000Z,5.944134897360723
2023-05-17T07:04:29.000Z,5.905229716520058
2023-05-17T07:05:31.000Z,5.895503421309892
2023-05-17T07:06:33.000Z,5.895503421309892
2023-05-17T07:07:36.000Z,5.914956011730224
2023-05-17T07:08:38.000Z,5.895503421309892
2023-05-17T07:09:40.000Z,5.876050830889559
2023-05-17T07:10:43.000Z,5.895503421309892
2023-05-17T07:11:45.000Z,5.895503421309892
2023-05-17T07:12:48.000Z,5.895503421309892
2023-05-17T07:13:50.000Z,5.895503421309892
2023-05-17T07:14:52.000Z,5.895503421309892
2023-05-17T07:15:54.000Z,5.895503421309892
2023-05-17T07:16:57.000Z,5.866324535679393
2023-05-17T07:17:59.000Z,5.895503421309892
2023-05-17T07:19:01.000Z,5.92468230694039
2023-05-17T07:20:04.000Z,5.92468230694039
2023-05-17T07:21:06.000Z,5.92468230694039
2023-05-17T07:22:08.000Z,5.934408602150556
2023-05-17T07:23:11.000Z,5.944134897360723
2023-05-17T07:24:13.000Z,5.934408602150556
2023-05-17T07:25:16.000Z,5.92468230694039
2023-05-17T07:26:18.000Z,5.934408602150556
2023-05-17T07:27:20.000Z,5.905229716520058
2023-05-17T07:28:22.000Z,5.905229716520058
2023-05-17T07:29:25.000Z,5.953861192570889
2023-05-17T07:30:27.000Z,5.944134897360723
2023-05-17T07:31:29.000Z,5.914956011730224
2023-05-17T07:32:32.000Z,5.905229716520058
2023-05-17T07:33:34.000Z,5.914956011730224
2023-05-17T07:34:36.000Z,5.905229716520058
2023-05-17T07:35:39.000Z,5.876050830889559
2023-05-17T07:36:41.000Z,5.895503421309892
2023-05-17T07:37:43.000Z,5.895503421309892
2023-05-17T07:38:46.000Z,5.905229716520058
2023-05-17T07:39:48.000Z,5.895503421309892
2023-05-17T07:40:51.000Z,5.895503421309892
2023-05-17T07:41:53.000Z,5.876050830889559
2023-05-17T07:42:55.000Z,5.866324535679393
2023-05-17T07:43:58.000Z,5.856598240469227
2023-05-17T07:45:00.000Z,5.817693059628562
2023-05-17T07:46:02.000Z,5.876050830889559
2023-05-17T07:47:04.000Z,5.885777126099725
2023-05-17T07:48:07.000Z,5.885777126099725
2023-05-17T07:49:09.000Z,5.885777126099725
2023-05-17T07:50:12.000Z,5.876050830889559
2023-05-17T07:51:14.000Z,5.905229716520058
2023-05-17T07:52:16.000Z,5.885777126099725
2023-05-17T07:53:19.000Z,5.905229716520058
2023-05-17T07:54:21.000Z,5.92468230694039
2023-05-17T07:55:23.000Z,5.944134897360723
2023-05-17T07:56:25.000Z,5.934408602150556
2023-05-17T07:57:28.000Z,5.944134897360723
2023-05-17T07:58:30.000Z,5.895503421309892
2023-05-17T07:59:33.000Z,5.905229716520058
2023-05-17T08:00:35.000Z,5.866324535679393
2023-05-17T08:01:37.000Z,5.866324535679393
2023-05-17T08:02:40.000Z,5.8468719452590605
2023-05-17T08:03:42.000Z,5.876050830889559
2023-05-17T08:04:44.000Z,5.895503421309892
2023-05-17T08:05:46.000Z,5.876050830889559
2023-05-17T08:06:49.000Z,5.866324535679393
2023-05-17T08:07:51.000Z,5.8468719452590605
2023-05-17T08:08:53.000Z,5.827419354838728
2023-05-17T08:09:55.000Z,5.817693059628562
2023-05-17T08:10:58.000Z,5.837145650048894
2023-05-17T08:12:00.000Z,5.837145650048894
2023-05-17T08:13:02.000Z,5.8468719452590605
2023-05-17T08:14:10.000Z,5.817693059628562
2023-05-17T08:15:12.000Z,5.8468719452590605
2023-05-17T08:16:15.000Z,5.856598240469227
2023-05-17T08:17:17.000Z,5.876050830889559
2023-05-17T08:18:19.000Z,5.905229716520058
2023-05-17T08:19:21.000Z,5.895503421309892
2023-05-17T08:20:24.000Z,5.895503421309892
2023-05-17T08:21:26.000Z,5.934408602150556
2023-05-17T08:22:29.000Z,5.934408602150556
2023-05-17T08:23:31.000Z,5.953861192570889
2023-05-17T08:24:33.000Z,5.92468230694039
2023-05-17T08:25:36.000Z,5.905229716520058
2023-05-17T08:26:38.000Z,5.876050830889559
2023-05-17T08:27:40.000Z,5.876050830889559
2023-05-17T08:28:43.000Z,5.866324535679393
2023-05-17T08:29:45.000Z,5.866324535679393
2023-05-17T08:30:47.000Z,5.905229716520058
2023-05-17T08:31:50.000Z,5.885777126099725
2023-05-17T08:32:52.000Z,5.905229716520058
2023-05-17T08:33:54.000Z,5.885777126099725
2023-05-17T08:34:57.000Z,5.895503421309892
2023-05-17T08:35:59.000Z,5.895503421309892
2023-05-17T08:37:01.000Z,5.895503421309892
2023-05-17T08:38:04.000Z,5.92468230694039
2023-05-17T08:39:06.000Z,5.934408602150556
2023-05-17T08:40:09.000Z,5.92468230694039
2023-05-17T08:41:11.000Z,5.944134897360723
2023-05-17T08:42:13.000Z,5.934408602150556
2023-05-17T08:43:16.000Z,5.944134897360723
2023-05-17T08:44:18.000Z,5.944134897360723
2023-05-17T08:45:20.000Z,5.953861192570889
2023-05-17T08:46:23.000Z,5.9830400782013875
2023-05-17T08:47:25.000Z,5.9830400782013875
2023-05-17T08:48:27.000Z,5.963587487781055
2023-05-17T08:49:29.000Z,5.934408602150556
2023-05-17T08:50:32.000Z,5.963587487781055
2023-05-17T08:51:34.000Z,5.92468230694039
2023-05-17T08:52:36.000Z,5.92468230694039
2023-05-17T08:53:39.000Z,5.914956011730224
2023-05-17T08:54:41.000Z,5.876050830889559
2023-05-17T08:55:43.000Z,5.905229716520058
2023-05-17T08:56:46.000Z,5.905229716520058
2023-05-17T08:57:48.000Z,5.895503421309892
2023-05-17T08:58:50.000Z,5.885777126099725
2023-05-17T08:59:53.000Z,5.876050830889559
2023-05-17T09:00:55.000Z,5.885777126099725
2023-05-17T09:01:57.000Z,5.885777126099725
2023-05-17T09:03:00.000Z,5.885777126099725
2023-05-17T09:04:02.000Z,5.885777126099725
2023-05-17T09:05:04.000Z,5.895503421309892
2023-05-17T09:06:06.000Z,5.905229716520058
2023-05-17T09:07:09.000Z,5.895503421309892
2023-05-17T09:08:11.000Z,5.953861192570889
2023-05-17T09:09:13.000Z,5.934408602150556
2023-05-17T09:10:16.000Z,5.934408602150556
2023-05-17T09:11:18.000Z,5.92468230694039
2023-05-17T09:12:20.000Z,5.905229716520058
2023-05-17T09:13:23.000Z,5.934408602150556
2023-05-17T09:14:25.000Z,5.934408602150556
2023-05-17T09:15:27.000Z,5.895503421309892
2023-05-17T09:16:29.000Z,5.934408602150556
2023-05-17T09:17:32.000Z,5.934408602150556
2023-05-17T09:18:34.000Z,5.944134897360723
2023-05-17T09:19:36.000Z,5.914956011730224
2023-05-17T09:20:39.000Z,5.92468230694039
2023-05-17T09:21:41.000Z,5.92468230694039
2023-05-17T09:22:44.000Z,5.92468230694039
2023-05-17T09:23:46.000Z,5.92468230694039
2023-05-17T09:24:48.000Z,5.914956011730224
2023-05-17T09:25:50.000Z,5.895503421309892
2023-05-17T09:26:53.000Z,5.895503421309892
2023-05-17T09:27:55.000Z,5.914956011730224
2023-05-17T09:28:57.000Z,5.914956011730224
2023-05-17T09:30:00.000Z,5.905229716520058
2023-05-17T09:31:02.000Z,5.914956011730224
2023-05-17T09:32:04.000Z,5.914956011730224
2023-05-17T09:33:07.000Z,5.934408602150556
2023-05-17T09:34:09.000Z,5.934408602150556
2023-05-17T09:35:12.000Z,5.944134897360723
2023-05-17T09:36:14.000Z,5.895503421309892
2023-05-17T09:37:16.000Z,5.953861192570889
2023-05-17T09:38:19.000Z,5.944134897360723